sensor_id;sensor_type;location;lat;lon;timestamp;pressure;altitude;pressure_sealevel;temperature
78859;BMP280;68210;52.032;4.634;2023-06-10T00:00:00;101337.25;;;21.89
78859;BMP280;68210;52.032;4.634;2023-06-10T00:02:02;101338.50;;;21.84
78859;BMP280;68210;52.032;4.634;2023-06-10T00:04:03;101348.38;;;21.82
78859;BMP280;68210;52.032;4.634;2023-06-10T00:06:04;101343.25;;;21.80
78859;BMP280;68210;52.032;4.634;2023-06-10T00:08:06;101344.53;;;21.76
78859;BMP280;68210;52.032;4.634;2023-06-10T00:10:12;101343.75;;;21.72
78859;BMP280;68210;52.032;4.634;2023-06-10T00:12:12;101348.56;;;21.68
78859;BMP280;68210;52.032;4.634;2023-06-10T00:14:13;101343.75;;;21.72
78859;BMP280;68210;52.032;4.634;2023-06-10T00:16:13;101346.56;;;21.68
78859;BMP280;68210;52.032;4.634;2023-06-10T00:18:14;101339.88;;;21.66
78859;BMP280;68210;52.032;4.634;2023-06-10T00:20:14;101348.22;;;21.59
78859;BMP280;68210;52.032;4.634;2023-06-10T00:22:14;101336.00;;;21.60
78859;BMP280;68210;52.032;4.634;2023-06-10T00:24:15;101346.22;;;21.63
78859;BMP280;68210;52.032;4.634;2023-06-10T00:26:15;101339.09;;;21.65
78859;BMP280;68210;52.032;4.634;2023-06-10T00:28:16;101339.22;;;21.55
78859;BMP280;68210;52.032;4.634;2023-06-10T00:30:16;101343.53;;;21.56
78859;BMP280;68210;52.032;4.634;2023-06-10T00:32:17;101340.47;;;21.47
78859;BMP280;68210;52.032;4.634;2023-06-10T00:34:17;101342.84;;;21.45
78859;BMP280;68210;52.032;4.634;2023-06-10T00:36:18;101342.81;;;21.49
78859;BMP280;68210;52.032;4.634;2023-06-10T00:38:18;101351.13;;;21.45
78859;BMP280;68210;52.032;4.634;2023-06-10T00:40:18;101344.06;;;21.44
78859;BMP280;68210;52.032;4.634;2023-06-10T00:42:19;101340.16;;;21.42
78859;BMP280;68210;52.032;4.634;2023-06-10T00:44:19;101339.81;;;21.36
78859;BMP280;68210;52.032;4.634;2023-06-10T00:46:21;101352.44;;;21.31
78859;BMP280;68210;52.032;4.634;2023-06-10T00:48:22;101350.50;;;21.28
78859;BMP280;68210;52.032;4.634;2023-06-10T00:50:22;101336.28;;;21.29
78859;BMP280;68210;52.032;4.634;2023-06-10T00:52:26;101354.44;;;21.27
78859;BMP280;68210;52.032;4.634;2023-06-10T00:54:28;101340.34;;;21.18
78859;BMP280;68210;52.032;4.634;2023-06-10T00:56:28;101354.53;;;21.16
78859;BMP280;68210;52.032;4.634;2023-06-10T00:58:29;101351.38;;;21.18
78859;BMP280;68210;52.032;4.634;2023-06-10T01:00:30;101351.81;;;21.13
78859;BMP280;68210;52.032;4.634;2023-06-10T01:02:30;101351.81;;;21.13
78859;BMP280;68210;52.032;4.634;2023-06-10T01:04:30;101349.91;;;21.06
78859;BMP280;68210;52.032;4.634;2023-06-10T01:08:56;101360.13;;;21.06
78859;BMP280;68210;52.032;4.634;2023-06-10T01:11:01;101352.63;;;21.10
78859;BMP280;68210;52.032;4.634;2023-06-10T01:13:03;101344.03;;;21.01
78859;BMP280;68210;52.032;4.634;2023-06-10T01:15:04;101345.22;;;21.00
78859;BMP280;68210;52.032;4.634;2023-06-10T01:17:07;101353.06;;;21.05
78859;BMP280;68210;52.032;4.634;2023-06-10T01:19:11;101355.00;;;21.08
78859;BMP280;68210;52.032;4.634;2023-06-10T01:21:18;101349.13;;;21.02
78859;BMP280;68210;52.032;4.634;2023-06-10T01:23:18;101345.22;;;21.00
78859;BMP280;68210;52.032;4.634;2023-06-10T01:25:19;101356.25;;;21.00
78859;BMP280;68210;52.032;4.634;2023-06-10T01:27:22;101349.59;;;20.94
78859;BMP280;68210;52.032;4.634;2023-06-10T01:29:36;101353.13;;;20.98
78859;BMP280;68210;52.032;4.634;2023-06-10T01:31:45;101351.53;;;20.97
78859;BMP280;68210;52.032;4.634;2023-06-10T01:33:53;101350.75;;;20.97
78859;BMP280;68210;52.032;4.634;2023-06-10T01:35:56;101351.53;;;20.97
78859;BMP280;68210;52.032;4.634;2023-06-10T01:37:58;101352.44;;;20.84
78859;BMP280;68210;52.032;4.634;2023-06-10T01:39:59;101347.34;;;20.82
78859;BMP280;68210;52.032;4.634;2023-06-10T01:42:00;101356.03;;;20.77
78859;BMP280;68210;52.032;4.634;2023-06-10T01:44:02;101347.00;;;20.73
78859;BMP280;68210;52.032;4.634;2023-06-10T01:46:02;101350.16;;;20.72
78859;BMP280;68210;52.032;4.634;2023-06-10T01:48:03;101356.44;;;20.72
78859;BMP280;68210;52.032;4.634;2023-06-10T01:50:03;101351.34;;;20.74
78859;BMP280;68210;52.032;4.634;2023-06-10T01:52:04;101361.22;;;20.69
78859;BMP280;68210;52.032;4.634;2023-06-10T01:54:05;101357.28;;;20.63
78859;BMP280;68210;52.032;4.634;2023-06-10T01:56:06;101350.66;;;20.57
78859;BMP280;68210;52.032;4.634;2023-06-10T01:58:06;101354.97;;;20.54
78859;BMP280;68210;52.032;4.634;2023-06-10T02:00:07;101343.94;;;20.58
78859;BMP280;68210;52.032;4.634;2023-06-10T02:02:08;101353.41;;;20.53
78859;BMP280;68210;52.032;4.634;2023-06-10T02:04:08;101350.25;;;20.58
78859;BMP280;68210;52.032;4.634;2023-06-10T02:06:08;101349.88;;;20.56
78859;BMP280;68210;52.032;4.634;2023-06-10T02:08:09;101361.31;;;20.48
78859;BMP280;68210;52.032;4.634;2023-06-10T02:10:09;101348.69;;;20.54
78859;BMP280;68210;52.032;4.634;2023-06-10T02:12:10;101356.56;;;20.48
78859;BMP280;68210;52.032;4.634;2023-06-10T02:14:10;101359.38;;;20.38
78859;BMP280;68210;52.032;4.634;2023-06-10T02:16:11;101351.91;;;20.42
78859;BMP280;68210;52.032;4.634;2023-06-10T02:18:12;101360.59;;;20.34
78859;BMP280;68210;52.032;4.634;2023-06-10T02:20:13;101353.50;;;20.33
78859;BMP280;68210;52.032;4.634;2023-06-10T02:22:13;101356.66;;;20.35
78859;BMP280;68210;52.032;4.634;2023-06-10T02:24:14;101348.72;;;20.43
78859;BMP280;68210;52.032;4.634;2023-06-10T02:26:14;101357.81;;;20.37
78859;BMP280;68210;52.032;4.634;2023-06-10T02:28:15;101355.88;;;20.34
78859;BMP280;68210;52.032;4.634;2023-06-10T02:30:15;101358.25;;;20.32
78859;BMP280;68210;52.032;4.634;2023-06-10T02:32:15;101357.91;;;20.23
78859;BMP280;68210;52.032;4.634;2023-06-10T02:34:16;101365.31;;;20.33
78859;BMP280;68210;52.032;4.634;2023-06-10T02:36:16;101357.44;;;20.35
78859;BMP280;68210;52.032;4.634;2023-06-10T02:38:17;101364.56;;;20.29
78859;BMP280;68210;52.032;4.634;2023-06-10T02:40:18;101361.81;;;20.22
78859;BMP280;68210;52.032;4.634;2023-06-10T02:42:18;101361.44;;;20.24
78859;BMP280;68210;52.032;4.634;2023-06-10T02:44:20;101356.31;;;20.26
78859;BMP280;68210;52.032;4.634;2023-06-10T02:46:20;101368.50;;;20.25
78859;BMP280;68210;52.032;4.634;2023-06-10T02:48:23;101362.25;;;20.21
78859;BMP280;68210;52.032;4.634;2023-06-10T02:50:23;101355.94;;;20.24
78859;BMP280;68210;52.032;4.634;2023-06-10T02:52:24;101355.94;;;20.17
78859;BMP280;68210;52.032;4.634;2023-06-10T02:54:25;101356.31;;;20.22
78859;BMP280;68210;52.032;4.634;2023-06-10T02:56:25;101360.69;;;20.13
78859;BMP280;68210;52.032;4.634;2023-06-10T02:58:25;101359.94;;;20.06
78859;BMP280;68210;52.032;4.634;2023-06-10T03:00:26;101355.19;;;20.09
78859;BMP280;68210;52.032;4.634;2023-06-10T03:02:27;101354.41;;;20.09
78859;BMP280;68210;52.032;4.634;2023-06-10T03:04:28;101350.91;;;20.02
78859;BMP280;68210;52.032;4.634;2023-06-10T03:06:31;101348.56;;;19.93
78859;BMP280;68210;52.032;4.634;2023-06-10T03:08:33;101358.81;;;19.93
78859;BMP280;68210;52.032;4.634;2023-06-10T03:10:33;101356.03;;;19.93
78859;BMP280;68210;52.032;4.634;2023-06-10T03:12:34;101350.94;;;19.95
78859;BMP280;68210;52.032;4.634;2023-06-10T03:14:34;101365.50;;;19.85
78859;BMP280;68210;52.032;4.634;2023-06-10T03:16:34;101365.53;;;19.78
78859;BMP280;68210;52.032;4.634;2023-06-10T03:18:35;101371.81;;;19.79
78859;BMP280;68210;52.032;4.634;2023-06-10T03:20:35;101369.88;;;19.72
78859;BMP280;68210;52.032;4.634;2023-06-10T03:22:37;101363.94;;;19.84
78859;BMP280;68210;52.032;4.634;2023-06-10T03:24:38;101364.31;;;19.93
78859;BMP280;68210;52.032;4.634;2023-06-10T03:26:40;101370.25;;;19.81
78859;BMP280;68210;52.032;4.634;2023-06-10T03:28:40;101356.88;;;19.86
78859;BMP280;68210;52.032;4.634;2023-06-10T03:30:41;101367.84;;;19.90
78859;BMP280;68210;52.032;4.634;2023-06-10T03:32:41;101367.91;;;19.83
78859;BMP280;68210;52.032;4.634;2023-06-10T03:34:43;101367.88;;;19.69
78859;BMP280;68210;52.032;4.634;2023-06-10T03:36:45;101375.75;;;19.71
78859;BMP280;68210;52.032;4.634;2023-06-10T03:38:45;101371.41;;;19.80
78859;BMP280;68210;52.032;4.634;2023-06-10T03:40:45;101381.22;;;19.74
78859;BMP280;68210;52.032;4.634;2023-06-10T03:42:46;101385.19;;;19.80
78859;BMP280;68210;52.032;4.634;2023-06-10T03:44:46;101385.19;;;19.70
78859;BMP280;68210;52.032;4.634;2023-06-10T03:46:46;101389.13;;;19.79
78859;BMP280;68210;52.032;4.634;2023-06-10T03:48:47;101384.75;;;19.92
78859;BMP280;68210;52.032;4.634;2023-06-10T03:50:48;101380.41;;;20.01
78859;BMP280;68210;52.032;4.634;2023-06-10T03:52:50;101376.47;;;20.06
78859;BMP280;68210;52.032;4.634;2023-06-10T03:54:51;101389.09;;;19.96
78859;BMP280;68210;52.032;4.634;2023-06-10T03:56:51;101383.56;;;19.93
78859;BMP280;68210;52.032;4.634;2023-06-10T03:58:52;101383.56;;;20.00
78859;BMP280;68210;52.032;4.634;2023-06-10T04:00:52;101380.41;;;20.01
78859;BMP280;68210;52.032;4.634;2023-06-10T04:02:52;101385.13;;;20.01
78859;BMP280;68210;52.032;4.634;2023-06-10T04:04:53;101388.22;;;20.09
78859;BMP280;68210;52.032;4.634;2023-06-10T04:06:53;101383.53;;;20.03
78859;BMP280;68210;52.032;4.634;2023-06-10T04:08:53;101390.63;;;20.01
78859;BMP280;68210;52.032;4.634;2023-06-10T04:10:56;101388.28;;;20.03
78859;BMP280;68210;52.032;4.634;2023-06-10T04:12:56;101385.88;;;20.11
78859;BMP280;68210;52.032;4.634;2023-06-10T04:14:57;101389.78;;;20.21
78859;BMP280;68210;52.032;4.634;2023-06-10T04:16:57;101395.28;;;20.21
78859;BMP280;68210;52.032;4.634;2023-06-10T04:18:59;101394.88;;;20.22
78859;BMP280;68210;52.032;4.634;2023-06-10T04:20:59;101392.91;;;20.26
78859;BMP280;68210;52.032;4.634;2023-06-10T04:22:59;101393.63;;;20.37
78859;BMP280;68210;52.032;4.634;2023-06-10T04:25:01;101410.63;;;20.18
78859;BMP280;68210;52.032;4.634;2023-06-10T04:27:01;101394.44;;;20.31
78859;BMP280;68210;52.032;4.634;2023-06-10T04:29:02;101406.56;;;20.47
78859;BMP280;68210;52.032;4.634;2023-06-10T04:31:02;101409.31;;;20.47
78859;BMP280;68210;52.032;4.634;2023-06-10T04:33:04;101417.22;;;20.41
78859;BMP280;68210;52.032;4.634;2023-06-10T04:35:07;101406.91;;;20.63
78859;BMP280;68210;52.032;4.634;2023-06-10T04:37:08;101410.47;;;20.60
78859;BMP280;68210;52.032;4.634;2023-06-10T04:39:08;101406.88;;;20.70
78859;BMP280;68210;52.032;4.634;2023-06-10T04:41:08;101409.69;;;20.49
78859;BMP280;68210;52.032;4.634;2023-06-10T04:43:09;101409.22;;;20.68
78859;BMP280;68210;52.032;4.634;2023-06-10T04:45:10;101409.16;;;20.85
78859;BMP280;68210;52.032;4.634;2023-06-10T04:47:10;101421.72;;;20.86
78859;BMP280;68210;52.032;4.634;2023-06-10T04:49:11;101414.31;;;20.76
78859;BMP280;68210;52.032;4.634;2023-06-10T04:51:14;101412.78;;;20.72
78859;BMP280;68210;52.032;4.634;2023-06-10T04:53:14;101415.38;;;20.96
78859;BMP280;68210;52.032;4.634;2023-06-10T04:55:15;101415.34;;;20.99
78859;BMP280;68210;52.032;4.634;2023-06-10T04:57:16;101420.00;;;21.09
78859;BMP280;68210;52.032;4.634;2023-06-10T04:59:16;101411.81;;;20.99
78859;BMP280;68210;52.032;4.634;2023-06-10T05:01:17;101420.75;;;21.13
78859;BMP280;68210;52.032;4.634;2023-06-10T05:03:17;101418.56;;;20.87
78859;BMP280;68210;52.032;4.634;2023-06-10T05:05:18;101417.66;;;21.04
78859;BMP280;68210;52.032;4.634;2023-06-10T05:07:18;101413.69;;;21.12
78859;BMP280;68210;52.032;4.634;2023-06-10T05:09:18;101412.09;;;21.11
78859;BMP280;68210;52.032;4.634;2023-06-10T05:11:19;101416.00;;;21.13
78859;BMP280;68210;52.032;4.634;2023-06-10T05:13:19;101417.50;;;21.25
78859;BMP280;68210;52.032;4.634;2023-06-10T05:15:19;101419.13;;;21.22
78859;BMP280;68210;52.032;4.634;2023-06-10T05:17:20;101419.81;;;21.30
78859;BMP280;68210;52.032;4.634;2023-06-10T05:19:20;101404.75;;;21.44
78859;BMP280;68210;52.032;4.634;2023-06-10T05:21:21;101423.56;;;21.56
78859;BMP280;68210;52.032;4.634;2023-06-10T05:23:21;101416.47;;;21.55
78859;BMP280;68210;52.032;4.634;2023-06-10T05:25:22;101425.66;;;21.42
78859;BMP280;68210;52.032;4.634;2023-06-10T05:27:22;101413.75;;;21.52
78859;BMP280;68210;52.032;4.634;2023-06-10T05:29:22;101416.44;;;21.59
78859;BMP280;68210;52.032;4.634;2023-06-10T05:31:23;101427.34;;;21.76
78859;BMP280;68210;52.032;4.634;2023-06-10T05:33:23;101411.09;;;21.81
78859;BMP280;68210;52.032;4.634;2023-06-10T05:35:24;101413.47;;;21.79
78859;BMP280;68210;52.032;4.634;2023-06-10T05:37:24;101413.88;;;21.78
78859;BMP280;68210;52.032;4.634;2023-06-10T05:39:25;101435.53;;;21.39
78859;BMP280;68210;52.032;4.634;2023-06-10T05:41:25;101412.31;;;21.77
78859;BMP280;68210;52.032;4.634;2023-06-10T05:43:26;101409.75;;;21.96
78859;BMP280;68210;52.032;4.634;2023-06-10T05:45:27;101417.44;;;22.15
78859;BMP280;68210;52.032;4.634;2023-06-10T05:47:27;101410.31;;;22.17
78859;BMP280;68210;52.032;4.634;2023-06-10T05:49:28;101427.56;;;22.28
78859;BMP280;68210;52.032;4.634;2023-06-10T05:51:28;101421.09;;;22.08
78859;BMP280;68210;52.032;4.634;2023-06-10T05:53:28;101436.16;;;22.33
78859;BMP280;68210;52.032;4.634;2023-06-10T05:55:29;101424.09;;;22.50
78859;BMP280;68210;52.032;4.634;2023-06-10T05:57:29;101423.28;;;22.53
78859;BMP280;68210;52.032;4.634;2023-06-10T05:59:29;101418.63;;;22.47
78859;BMP280;68210;52.032;4.634;2023-06-10T06:01:30;101414.72;;;22.44
78859;BMP280;68210;52.032;4.634;2023-06-10T06:03:30;101427.63;;;22.21
78859;BMP280;68210;52.032;4.634;2023-06-10T06:05:31;101423.28;;;22.53
78859;BMP280;68210;52.032;4.634;2023-06-10T06:07:34;101421.47;;;22.69
78859;BMP280;68210;52.032;4.634;2023-06-10T06:09:35;101433.59;;;22.49
78859;BMP280;68210;52.032;4.634;2023-06-10T06:11:35;101421.13;;;22.38
78859;BMP280;68210;52.032;4.634;2023-06-10T06:13:35;101439.69;;;22.67
78859;BMP280;68210;52.032;4.634;2023-06-10T06:15:36;101426.66;;;22.34
78859;BMP280;68210;52.032;4.634;2023-06-10T06:17:36;101432.78;;;22.82
78859;BMP280;68210;52.032;4.634;2023-06-10T06:19:37;101424.41;;;22.88
78859;BMP280;68210;52.032;4.634;2023-06-10T06:21:37;101419.81;;;23.05
78859;BMP280;68210;52.032;4.634;2023-06-10T06:23:38;101424.03;;;23.13
78859;BMP280;68210;52.032;4.634;2023-06-10T06:25:38;101421.06;;;23.23
78859;BMP280;68210;52.032;4.634;2023-06-10T06:27:39;101428.34;;;23.14
78859;BMP280;68210;52.032;4.634;2023-06-10T06:29:39;101423.81;;;23.00
78859;BMP280;68210;52.032;4.634;2023-06-10T06:31:40;101420.25;;;23.26
78859;BMP280;68210;52.032;4.634;2023-06-10T06:33:40;101425.50;;;23.66
78859;BMP280;68210;52.032;4.634;2023-06-10T06:35:40;101417.63;;;23.64
78859;BMP280;68210;52.032;4.634;2023-06-10T06:37:41;101438.19;;;23.63
78859;BMP280;68210;52.032;4.634;2023-06-10T06:39:41;101422.91;;;23.78
78859;BMP280;68210;52.032;4.634;2023-06-10T06:41:42;101425.28;;;23.79
78859;BMP280;68210;52.032;4.634;2023-06-10T06:43:42;101427.63;;;24.23
78859;BMP280;68210;52.032;4.634;2023-06-10T06:45:43;101428.88;;;24.38
78859;BMP280;68210;52.032;4.634;2023-06-10T06:47:43;101438.41;;;24.37
78859;BMP280;68210;52.032;4.634;2023-06-10T06:49:43;101427.31;;;24.37
78859;BMP280;68210;52.032;4.634;2023-06-10T06:51:44;101431.28;;;24.36
78859;BMP280;68210;52.032;4.634;2023-06-10T06:53:44;101431.13;;;23.62
78859;BMP280;68210;52.032;4.634;2023-06-10T06:55:45;101431.25;;;23.97
78859;BMP280;68210;52.032;4.634;2023-06-10T06:57:46;101446.81;;;23.91
78859;BMP280;68210;52.032;4.634;2023-06-10T06:59:46;101433.50;;;24.25
78859;BMP280;68210;52.032;4.634;2023-06-10T07:01:46;101436.00;;;24.39
78859;BMP280;68210;52.032;4.634;2023-06-10T07:03:47;101436.53;;;24.30
78859;BMP280;68210;52.032;4.634;2023-06-10T07:05:47;101438.75;;;24.58
78859;BMP280;68210;52.032;4.634;2023-06-10T07:07:47;101457.53;;;25.04
78859;BMP280;68210;52.032;4.634;2023-06-10T07:09:48;101442.50;;;24.67
78859;BMP280;68210;52.032;4.634;2023-06-10T07:11:48;101448.72;;;24.36
78859;BMP280;68210;52.032;4.634;2023-06-10T07:13:48;101445.94;;;24.55
78859;BMP280;68210;52.032;4.634;2023-06-10T07:15:49;101445.06;;;24.58
78859;BMP280;68210;52.032;4.634;2023-06-10T07:17:49;101440.72;;;24.76
78859;BMP280;68210;52.032;4.634;2023-06-10T07:19:50;101434.09;;;24.90
78859;BMP280;68210;52.032;4.634;2023-06-10T07:21:51;101440.03;;;25.23
78859;BMP280;68210;52.032;4.634;2023-06-10T07:23:52;101431.38;;;25.53
78859;BMP280;68210;52.032;4.634;2023-06-10T07:25:53;101444.53;;;25.80
78859;BMP280;68210;52.032;4.634;2023-06-10T07:27:54;101431.88;;;25.79
78859;BMP280;68210;52.032;4.634;2023-06-10T07:29:54;101440.44;;;25.85
78859;BMP280;68210;52.032;4.634;2023-06-10T07:31:54;101437.81;;;25.93
78859;BMP280;68210;52.032;4.634;2023-06-10T07:33:55;101439.53;;;25.75
78859;BMP280;68210;52.032;4.634;2023-06-10T07:35:55;101436.56;;;25.82
78859;BMP280;68210;52.032;4.634;2023-06-10T07:37:56;101434.56;;;26.26
78859;BMP280;68210;52.032;4.634;2023-06-10T07:39:56;101436.38;;;26.45
78859;BMP280;68210;52.032;4.634;2023-06-10T07:41:56;101439.41;;;26.51
78859;BMP280;68210;52.032;4.634;2023-06-10T07:43:57;101428.75;;;26.61
78859;BMP280;68210;52.032;4.634;2023-06-10T07:45:57;101432.69;;;26.88
78859;BMP280;68210;52.032;4.634;2023-06-10T07:47:58;101433.81;;;27.03
78859;BMP280;68210;52.032;4.634;2023-06-10T07:49:58;101439.50;;;26.47
78859;BMP280;68210;52.032;4.634;2023-06-10T07:51:58;101451.63;;;26.93
78859;BMP280;68210;52.032;4.634;2023-06-10T07:53:59;101440.69;;;26.34
78859;BMP280;68210;52.032;4.634;2023-06-10T07:55:59;101453.38;;;26.35
78859;BMP280;68210;52.032;4.634;2023-06-10T07:57:59;101457.50;;;26.15
78859;BMP280;68210;52.032;4.634;2023-06-10T08:00:00;101444.47;;;26.12
78859;BMP280;68210;52.032;4.634;2023-06-10T08:02:02;101446.75;;;26.57
78859;BMP280;68210;52.032;4.634;2023-06-10T08:04:03;101442.97;;;26.51
78859;BMP280;68210;52.032;4.634;2023-06-10T08:06:04;101440.25;;;26.76
78859;BMP280;68210;52.032;4.634;2023-06-10T08:08:05;101438.91;;;27.17
78859;BMP280;68210;52.032;4.634;2023-06-10T08:10:06;101441.53;;;26.59
78859;BMP280;68210;52.032;4.634;2023-06-10T08:12:07;101438.84;;;26.96
78859;BMP280;68210;52.032;4.634;2023-06-10T08:14:08;101438.06;;;27.20
78859;BMP280;68210;52.032;4.634;2023-06-10T08:16:08;101437.69;;;26.81
78859;BMP280;68210;52.032;4.634;2023-06-10T08:18:09;101437.34;;;26.79
78859;BMP280;68210;52.032;4.634;2023-06-10T08:20:09;101448.28;;;27.35
78859;BMP280;68210;52.032;4.634;2023-06-10T08:22:09;101443.50;;;26.99
78859;BMP280;68210;52.032;4.634;2023-06-10T08:24:10;101441.94;;;27.22
78859;BMP280;68210;52.032;4.634;2023-06-10T08:26:10;101438.75;;;27.82
78859;BMP280;68210;52.032;4.634;2023-06-10T08:28:11;101431.81;;;27.04
78859;BMP280;68210;52.032;4.634;2023-06-10T08:30:11;101449.97;;;27.57
78859;BMP280;68210;52.032;4.634;2023-06-10T08:32:13;101438.69;;;27.48
78859;BMP280;68210;52.032;4.634;2023-06-10T08:34:13;101444.72;;;27.10
78859;BMP280;68210;52.032;4.634;2023-06-10T08:36:14;101443.84;;;27.38
78859;BMP280;68210;52.032;4.634;2023-06-10T08:38:14;101436.44;;;27.68
78859;BMP280;68210;52.032;4.634;2023-06-10T08:40:16;101442.56;;;28.09
78859;BMP280;68210;52.032;4.634;2023-06-10T08:42:23;101439.44;;;27.74
78859;BMP280;68210;52.032;4.634;2023-06-10T08:44:29;101455.31;;;27.40
78859;BMP280;68210;52.032;4.634;2023-06-10T08:46:31;101442.88;;;27.78
78859;BMP280;68210;52.032;4.634;2023-06-10T08:48:34;101449.13;;;28.15
78859;BMP280;68210;52.032;4.634;2023-06-10T08:50:36;101437.56;;;28.25
78859;BMP280;68210;52.032;4.634;2023-06-10T08:52:40;101445.94;;;28.46
78859;BMP280;68210;52.032;4.634;2023-06-10T08:54:46;101446.00;;;28.34
78859;BMP280;68210;52.032;4.634;2023-06-10T08:56:49;101451.50;;;28.04
78859;BMP280;68210;52.032;4.634;2023-06-10T08:58:51;101440.00;;;28.02
78859;BMP280;68210;52.032;4.634;2023-06-10T09:00:53;101441.69;;;28.54
78859;BMP280;68210;52.032;4.634;2023-06-10T09:02:54;101443.25;;;27.30
78859;BMP280;68210;52.032;4.634;2023-06-10T09:04:56;101448.84;;;28.01
78859;BMP280;68210;52.032;4.634;2023-06-10T09:06:57;101437.72;;;28.22
78859;BMP280;68210;52.032;4.634;2023-06-10T09:08:59;101444.63;;;28.17
78859;BMP280;68210;52.032;4.634;2023-06-10T09:10:59;101428.22;;;27.86
78859;BMP280;68210;52.032;4.634;2023-06-10T09:13:00;101445.72;;;27.99
78859;BMP280;68210;52.032;4.634;2023-06-10T09:15:04;101436.22;;;28.09
78859;BMP280;68210;52.032;4.634;2023-06-10T09:17:05;101438.09;;;28.33
78859;BMP280;68210;52.032;4.634;2023-06-10T09:19:06;101441.22;;;28.56
78859;BMP280;68210;52.032;4.634;2023-06-10T09:21:10;101448.22;;;28.39
78859;BMP280;68210;52.032;4.634;2023-06-10T09:23:10;101456.38;;;27.79
78859;BMP280;68210;52.032;4.634;2023-06-10T09:25:12;101443.38;;;27.51
78859;BMP280;68210;52.032;4.634;2023-06-10T09:27:12;101452.56;;;27.73
78859;BMP280;68210;52.032;4.634;2023-06-10T09:29:13;101448.00;;;28.12
78859;BMP280;68210;52.032;4.634;2023-06-10T09:31:14;101442.19;;;28.19
78859;BMP280;68210;52.032;4.634;2023-06-10T09:33:18;101455.88;;;28.26
78859;BMP280;68210;52.032;4.634;2023-06-10T09:35:18;101445.56;;;28.14
78859;BMP280;68210;52.032;4.634;2023-06-10T09:37:23;101440.28;;;27.95
78859;BMP280;68210;52.032;4.634;2023-06-10T09:39:24;101444.31;;;28.37
78859;BMP280;68210;52.032;4.634;2023-06-10T09:41:39;101438.13;;;28.54
78859;BMP280;68210;52.032;4.634;2023-06-10T09:43:45;101441.59;;;28.24
78859;BMP280;68210;52.032;4.634;2023-06-10T09:45:52;101452.88;;;28.84
78859;BMP280;68210;52.032;4.634;2023-06-10T09:47:56;101434.94;;;28.94
78859;BMP280;68210;52.032;4.634;2023-06-10T09:49:56;101440.97;;;28.93
78859;BMP280;68210;52.032;4.634;2023-06-10T09:51:56;101443.56;;;29.17
78859;BMP280;68210;52.032;4.634;2023-06-10T09:53:57;101446.72;;;28.26
78859;BMP280;68210;52.032;4.634;2023-06-10T09:55:58;101442.63;;;28.39
78859;BMP280;68210;52.032;4.634;2023-06-10T09:57:59;101430.44;;;29.27
78859;BMP280;68210;52.032;4.634;2023-06-10T10:00:04;101437.38;;;29.13
78859;BMP280;68210;52.032;4.634;2023-06-10T10:02:05;101438.75;;;29.18
78859;BMP280;68210;52.032;4.634;2023-06-10T10:04:06;101449.63;;;29.16
78859;BMP280;68210;52.032;4.634;2023-06-10T10:06:06;101447.63;;;29.16
78859;BMP280;68210;52.032;4.634;2023-06-10T10:08:06;101446.50;;;29.14
78859;BMP280;68210;52.032;4.634;2023-06-10T10:10:07;101438.53;;;29.42
78859;BMP280;68210;52.032;4.634;2023-06-10T10:12:11;101431.25;;;29.06
78859;BMP280;68210;52.032;4.634;2023-06-10T10:14:12;101432.16;;;29.42
78859;BMP280;68210;52.032;4.634;2023-06-10T10:16:19;101433.25;;;29.44
78859;BMP280;68210;52.032;4.634;2023-06-10T10:18:22;101430.78;;;29.55
78859;BMP280;68210;52.032;4.634;2023-06-10T10:20:34;101435.97;;;29.65
78859;BMP280;68210;52.032;4.634;2023-06-10T10:22:39;101429.16;;;29.66
78859;BMP280;68210;52.032;4.634;2023-06-10T10:24:47;101431.78;;;29.70
78859;BMP280;68210;52.032;4.634;2023-06-10T10:26:50;101430.94;;;29.43
78859;BMP280;68210;52.032;4.634;2023-06-10T10:31:08;101436.94;;;29.24
78859;BMP280;68210;52.032;4.634;2023-06-10T10:33:17;101432.31;;;29.38
78859;BMP280;68210;52.032;4.634;2023-06-10T10:35:21;101433.78;;;29.13
78859;BMP280;68210;52.032;4.634;2023-06-10T10:37:23;101419.88;;;29.39
78859;BMP280;68210;52.032;4.634;2023-06-10T10:39:24;101428.91;;;29.34
78859;BMP280;68210;52.032;4.634;2023-06-10T10:41:26;101414.78;;;29.38
78859;BMP280;68210;52.032;4.634;2023-06-10T10:43:27;101412.53;;;29.72
78859;BMP280;68210;52.032;4.634;2023-06-10T10:45:28;101417.09;;;29.39
78859;BMP280;68210;52.032;4.634;2023-06-10T10:47:30;101402.13;;;29.72
78859;BMP280;68210;52.032;4.634;2023-06-10T10:49:32;101410.00;;;29.56
78859;BMP280;68210;52.032;4.634;2023-06-10T10:51:34;101410.59;;;29.51
78859;BMP280;68210;52.032;4.634;2023-06-10T10:53:37;101396.38;;;29.76
78859;BMP280;68210;52.032;4.634;2023-06-10T10:55:38;101404.13;;;29.63
78859;BMP280;68210;52.032;4.634;2023-06-10T10:57:40;101411.28;;;29.64
78859;BMP280;68210;52.032;4.634;2023-06-10T10:59:52;101414.03;;;29.55
78859;BMP280;68210;52.032;4.634;2023-06-10T11:01:52;101406.59;;;29.61
78859;BMP280;68210;52.032;4.634;2023-06-10T11:03:56;101415.44;;;29.51
78859;BMP280;68210;52.032;4.634;2023-06-10T11:05:57;101408.88;;;29.45
78859;BMP280;68210;52.032;4.634;2023-06-10T11:07:58;101403.66;;;29.56
78859;BMP280;68210;52.032;4.634;2023-06-10T11:10:05;101406.28;;;29.50
78859;BMP280;68210;52.032;4.634;2023-06-10T11:12:06;101429.97;;;28.98
78859;BMP280;68210;52.032;4.634;2023-06-10T11:14:08;101395.47;;;28.83
78859;BMP280;68210;52.032;4.634;2023-06-10T11:16:09;101415.25;;;28.68
78859;BMP280;68210;52.032;4.634;2023-06-10T11:20:12;101406.63;;;29.13
78859;BMP280;68210;52.032;4.634;2023-06-10T11:22:33;101402.53;;;28.97
78859;BMP280;68210;52.032;4.634;2023-06-10T11:24:53;101398.34;;;29.01
78859;BMP280;68210;52.032;4.634;2023-06-10T11:26:53;101398.22;;;28.74
78859;BMP280;68210;52.032;4.634;2023-06-10T11:30:57;101394.53;;;29.07
78859;BMP280;68210;52.032;4.634;2023-06-10T11:32:58;101396.09;;;28.87
78859;BMP280;68210;52.032;4.634;2023-06-10T11:34:59;101391.59;;;28.81
78859;BMP280;68210;52.032;4.634;2023-06-10T11:37:00;101385.88;;;28.84